MSC Florentina — HPFH — position and weather

sailwx.info

Track history (hours):
 
Tides and Currents Weather Stations Pressure Air Temp Water Temp Dewpoint Dewpoint Depression Visibility Wind Speed Wind Dir Waves Ship Positions

MSC Florentina

Last reported at 2017-Jul-25 22:54 UTC. Time now 2017-Jul-27 02:38 UTC.
Position N 31°28' W 079°46'.

Length 300 m; draft 10.8 m.

Type: Ship (hazmat cat A). MMSI: 352870000.

Date/timePositionNaut miles runAvg speedWind from/ knotsBaromVisibWave heightAir tempDewpointWater temp
2017-Jul-25 22:54N 31°28' W 079°46'1619.3
2017-Jul-25 22:05N 31°36' W 080°02'115.2
2017-Jul-25 22:00N 31°37' W 080°03'712.5
2017-Jul-25 21:29N 31°40' W 080°09'816.8
2017-Jul-25 21:00N 31°45' W 080°17'1019.4
2017-Jul-25 20:30N 31°50' W 080°27'918.0
2017-Jul-25 20:00N 31°54' W 080°36'815.6
2017-Jul-25 19:30N 31°58' W 080°44'815.2
2017-Jul-25 19:00N 32°02' W 080°52'612.9
2017-Jul-25 18:30N 32°05' W 080°59'4 8.4
2017-Jul-25 18:00N 32°05' W 081°04'3 5.8
2017-Jul-25 17:30N 32°06' W 081°07'2 2.4
2017-Jul-25 16:50N 32°07' W 081°08'0 0.0
2017-Jul-25 16:26N 32°07' W 081°08'0 0.0
2017-Jul-25 15:55N 32°07' W 081°08'0 0.0
2017-Jul-25 15:26N 32°07' W 081°08'0 0.0
2017-Jul-25 14:55N 32°07' W 081°08'0 0.0
2017-Jul-25 13:56N 32°07' W 081°08'0 0.0
2017-Jul-25 13:26N 32°07' W 081°08'0 0.0
2017-Jul-25 12:56N 32°07' W 081°08'0 0.0
2017-Jul-25 12:26N 32°07' W 081°08'0 0.0
2017-Jul-25 11:55N 32°07' W 081°08'0 0.0
2017-Jul-25 11:26N 32°07' W 081°08'0 0.0
2017-Jul-25 10:56N 32°07' W 081°08'0 0.0
2017-Jul-25 10:26N 32°07' W 081°08'0 0.0
2017-Jul-25 09:55N 32°07' W 081°08'0 0.0
2017-Jul-25 09:26N 32°07' W 081°08'0 0.0
2017-Jul-25 08:50N 32°07' W 081°08'0 0.0
2017-Jul-25 08:26N 32°07' W 081°08'0 0.0
2017-Jul-25 07:56N 32°07' W 081°08'0 0.0
2017-Jul-25 07:26N 32°07' W 081°08'0 0.0
2017-Jul-25 06:56N 32°07' W 081°08'0 0.0
2017-Jul-25 06:20N 32°07' W 081°08'0 0.0
2017-Jul-25 05:56N 32°07' W 081°08'0 0.0
2017-Jul-25 05:26N 32°07' W 081°08'0 0.0
2017-Jul-25 04:56N 32°07' W 081°08'0 0.0
2017-Jul-25 04:26N 32°07' W 081°08'0 0.0
2017-Jul-25 03:56N 32°07' W 081°08'0 0.0
2017-Jul-25 03:14N 32°07' W 081°08'0 0.0
2017-Jul-25 02:50N 32°07' W 081°08'0 0.0
2017-Jul-25 02:26N 32°07' W 081°08'0 0.0
2017-Jul-25 01:50N 32°07' W 081°08'0 0.0
2017-Jul-25 01:26N 32°07' W 081°08'0 0.0
2017-Jul-25 00:56N 32°07' W 081°08'0 0.0
2017-Jul-25 00:26N 32°07' W 081°08'0 0.0
2017-Jul-24 23:49N 32°07' W 081°08'0 0.0
2017-Jul-24 23:20N 32°07' W 081°08'0 0.0
2017-Jul-24 22:56N 32°07' W 081°08'0 0.3
2017-Jul-24 22:30N 32°08' W 081°08'1 1.1
2017-Jul-24 22:00N 32°07' W 081°08'3 6.2
2017-Jul-24 21:30N 32°05' W 081°05'3 6.9
2017-Jul-24 21:00N 32°06' W 081°01'5 9.2
2017-Jul-24 20:30N 32°03' W 080°56'510.7
2017-Jul-24 20:01N 32°02' W 080°50'714.2
2017-Jul-24 19:30N 31°58' W 080°44'713.5
2017-Jul-24 19:00N 31°56' W 080°36'917.0
2017-Jul-24 18:30N 31°57' W 080°26'37416.5
2017-Jul-23 19:48N 36°46' W 075°39'620.2
2017-Jul-23 19:30N 36°49' W 075°46'1019.4
2017-Jul-23 19:00N 36°54' W 075°55'714.2
2017-Jul-23 18:30N 36°60' W 076°01'1119.4
2017-Jul-23 17:56N 37°09' W 076°09'7817.5
2017-Jul-23 13:27N 38°27' W 076°22'1419.3
2017-Jul-23 12:43N 38°40' W 076°25'619.5
2017-Jul-23 12:25N 38°46' W 076°26'818.7
2017-Jul-23 12:01N 38°54' W 076°24'714.0
2017-Jul-23 11:30N 39°01' W 076°23'713.5
2017-Jul-23 11:00N 39°07' W 076°24'611.5
2017-Jul-23 10:30N 39°12' W 076°29'5 9.8
2017-Jul-23 09:59N 39°15' W 076°34'1 1.5
2017-Jul-23 09:29N 39°15' W 076°33'0 0.0
2017-Jul-23 08:53N 39°15' W 076°33'0 0.0
2017-Jul-23 08:29N 39°15' W 076°33'0 0.0
2017-Jul-23 06:53N 39°15' W 076°33'0 0.0
2017-Jul-23 06:29N 39°15' W 076°33'0 0.0
2017-Jul-23 05:59N 39°15' W 076°33'0 0.0
2017-Jul-23 05:29N 39°15' W 076°33'0 0.0
2017-Jul-23 04:59N 39°15' W 076°33'0 0.0
2017-Jul-23 04:29N 39°15' W 076°33'0 0.0
2017-Jul-23 03:59N 39°15' W 076°33'0 0.0
2017-Jul-23 03:29N 39°15' W 076°33'0 0.0
2017-Jul-23 02:59N 39°15' W 076°33'0 0.0
2017-Jul-23 02:29N 39°15' W 076°33'0 0.0
2017-Jul-23 01:59N 39°15' W 076°33'0 0.0
2017-Jul-23 01:29N 39°15' W 076°33'0 0.0
2017-Jul-23 00:59N 39°15' W 076°33'0 0.0
2017-Jul-23 00:26N 39°15' W 076°33'0 0.0
2017-Jul-22 23:59N 39°15' W 076°33'0 0.0
2017-Jul-22 23:29N 39°15' W 076°33'0 0.0
2017-Jul-22 22:59N 39°15' W 076°33'0 0.0
2017-Jul-22 22:29N 39°15' W 076°33'0 0.0
2017-Jul-22 21:59N 39°15' W 076°33'0 0.0
2017-Jul-22 21:29N 39°15' W 076°33'0 0.0
2017-Jul-22 21:00N 39°15' W 076°33'0 0.0
2017-Jul-22 20:29N 39°15' W 076°33'0 0.0
2017-Jul-22 19:59N 39°15' W 076°33'0 0.0
2017-Jul-22 19:29N 39°15' W 076°33'0 0.0
2017-Jul-22 18:56N 39°15' W 076°33'0 0.0
2017-Jul-22 18:29N 39°15' W 076°33'0 0.0
2017-Jul-22 17:59N 39°15' W 076°33'0 0.0
2017-Jul-22 17:29N 39°15' W 076°33'0 0.0
2017-Jul-22 16:59N 39°15' W 076°33'0 0.0
2017-Jul-22 16:29N 39°15' W 076°33'0 0.0
2017-Jul-22 15:59N 39°15' W 076°33'0 0.0
2017-Jul-22 15:26N 39°15' W 076°33'1 2.5
2017-Jul-22 15:01N 39°14' W 076°33'10 9.5
2017-Jul-22 14:00N 39°08' W 076°24'714.7
2017-Jul-22 13:30N 39°00' W 076°23'917.6
2017-Jul-22 13:00N 38°52' W 076°24'918.6
2017-Jul-22 12:31N 38°42' W 076°26'918.2
2017-Jul-22 12:00N 38°33' W 076°26'918.4
2017-Jul-22 11:30N 38°25' W 076°21'1418.7
2017-Jul-22 10:44N 38°12' W 076°14'519.0
2017-Jul-22 10:28N 38°07' W 076°13'918.4
2017-Jul-22 09:59N 37°58' W 076°11'1018.2
2017-Jul-22 09:28N 37°48' W 076°10'3816.4
2017-Jul-22 07:09N 37°10' W 076°09'216.5
2017-Jul-22 07:00N 37°08' W 076°09'816.4
2017-Jul-22 06:30N 37°01' W 076°03'714.2
2017-Jul-22 06:00N 36°56' W 075°57'612.6
2017-Jul-22 05:30N 36°52' W 075°51'12614.2
2017-Jul-21 20:39N 38°37' W 074°22'314.2
2017-Jul-21 20:28N 38°39' W 074°21'714.3
2017-Jul-21 20:00N 38°45' W 074°17'914.3
2017-Jul-21 19:22N 38°53' W 074°11'514.2
2017-Jul-21 19:00N 38°58' W 074°08'914.5
2017-Jul-21 18:25N 39°05' W 074°03'614.6
2017-Jul-21 18:00N 39°11' W 074°00'714.7
2017-Jul-21 17:30N 39°18' W 073°59'814.7
2017-Jul-21 16:59N 39°26' W 073°57'814.9
2017-Jul-21 16:27N 39°33' W 073°55'714.9
2017-Jul-21 16:00N 39°40' W 073°54'814.9
2017-Jul-21 15:30N 39°47' W 073°52'714.8
2017-Jul-21 15:00N 39°55' W 073°52'815.1
2017-Jul-21 14:30N 40°02' W 073°51'1015.0
2017-Jul-21 13:49N 40°12' W 073°50'515.1
2017-Jul-21 13:28N 40°18' W 073°49'714.3
2017-Jul-21 12:59N 40°25' W 073°49'4 8.9
2017-Jul-21 12:30N 40°28' W 073°52'714.7
2017-Jul-21 12:00N 40°32' W 074°01'612.9
2017-Jul-21 11:30N 40°38' W 074°03'3 6.2
2017-Jul-21 11:00N 40°39' W 074°07'2 3.2
2017-Jul-21 10:31N 40°40' W 074°08'1 2.3
2017-Jul-21 09:58N 40°41' W 074°09'0 0.2
2017-Jul-21 09:28N 40°41' W 074°09'0 0.0
2017-Jul-21 08:58N 40°41' W 074°09'0 0.0
2017-Jul-21 08:28N 40°41' W 074°09'0 0.0
2017-Jul-21 07:58N 40°41' W 074°09'0 0.0
2017-Jul-21 07:28N 40°41' W 074°09'0 0.0
2017-Jul-21 06:58N 40°41' W 074°09'0 0.0
2017-Jul-21 06:28N 40°41' W 074°09'0 0.0
2017-Jul-21 05:58N 40°41' W 074°09'0 0.0
2017-Jul-21 05:28N 40°41' W 074°09'0 0.0
2017-Jul-21 04:58N 40°41' W 074°09'0 0.0
2017-Jul-21 04:28N 40°41' W 074°09'0 0.0
2017-Jul-21 03:58N 40°41' W 074°09'0 0.0
2017-Jul-21 03:28N 40°41' W 074°09'0 0.0
2017-Jul-21 02:58N 40°41' W 074°09'0 0.0
2017-Jul-21 02:28N 40°41' W 074°09'0 0.0
2017-Jul-21 01:55N 40°41' W 074°09'0 0.0
2017-Jul-21 01:28N 40°41' W 074°09'0 0.0
2017-Jul-21 00:58N 40°41' W 074°09'0 0.0
2017-Jul-21 00:28N 40°41' W 074°09'0 0.0
2017-Jul-20 23:58N 40°41' W 074°09'0 0.0
2017-Jul-20 23:28N 40°41' W 074°09'0 0.0
2017-Jul-20 22:53N 40°41' W 074°09'0 0.0
2017-Jul-20 22:26N 40°41' W 074°09'0 0.0
2017-Jul-20 21:57N 40°41' W 074°09'0 0.0
2017-Jul-20 21:27N 40°41' W 074°09'0 0.0
2017-Jul-20 20:26N 40°41' W 074°09'0 0.0
2017-Jul-20 19:59N 40°41' W 074°09'0 0.0
2017-Jul-20 19:29N 40°41' W 074°09'0 0.0
2017-Jul-20 18:59N 40°41' W 074°09'0 0.0
2017-Jul-20 18:29N 40°41' W 074°09'0 0.0
2017-Jul-20 17:59N 40°41' W 074°09'0 0.0
2017-Jul-20 17:26N 40°41' W 074°09'0 0.0
2017-Jul-20 16:50N 40°41' W 074°09'0 0.0
2017-Jul-20 16:29N 40°41' W 074°09'0 0.0
2017-Jul-20 15:59N 40°41' W 074°09'0 0.0
2017-Jul-20 15:29N 40°41' W 074°09'0 0.0
2017-Jul-20 14:59N 40°41' W 074°09'0 0.0
2017-Jul-20 13:59N 40°41' W 074°09'0 0.0
2017-Jul-20 13:29N 40°41' W 074°09'0 0.0
2017-Jul-20 12:59N 40°41' W 074°09'0 0.0
2017-Jul-20 12:29N 40°41' W 074°09'0 0.0
2017-Jul-20 11:59N 40°41' W 074°09'0 0.0
2017-Jul-20 11:29N 40°41' W 074°09'0 0.0
2017-Jul-20 10:59N 40°41' W 074°09'0 0.0
2017-Jul-20 10:20N 40°41' W 074°09'0 0.0
2017-Jul-20 09:59N 40°41' W 074°09'0 0.0
2017-Jul-20 09:29N 40°41' W 074°09'0 0.0
2017-Jul-20 08:56N 40°41' W 074°09'0 0.0
2017-Jul-20 08:29N 40°41' W 074°09'0 0.0
2017-Jul-20 07:59N 40°41' W 074°09'0 0.0
2017-Jul-20 07:29N 40°41' W 074°09'0 0.0
2017-Jul-20 06:59N 40°41' W 074°09'0 0.0
2017-Jul-20 06:29N 40°41' W 074°09'0 0.0
2017-Jul-20 05:59N 40°41' W 074°09'0 0.0
2017-Jul-20 05:29N 40°41' W 074°09'0 0.0
2017-Jul-20 04:59N 40°41' W 074°09'0 0.0
2017-Jul-20 04:29N 40°41' W 074°09'0 0.0
2017-Jul-20 03:59N 40°41' W 074°09'0 0.0
2017-Jul-20 03:29N 40°41' W 074°09'0 0.0
2017-Jul-20 02:59N 40°41' W 074°09'0 0.0
2017-Jul-20 02:29N 40°41' W 074°09'0 0.0
2017-Jul-20 01:53N 40°41' W 074°09'1 2.8
2017-Jul-20 01:30N 40°40' W 074°08'1 1.3
2017-Jul-20 01:00N 40°40' W 074°09'1 2.1
2017-Jul-20 00:30N 40°39' W 074°09'2 4.7
2017-Jul-20 00:00N 40°39' W 074°06'3 5.7
2017-Jul-19 23:30N 40°37' W 074°03'612.4
2017-Jul-19 23:00N 40°31' W 073°60'815.4
2017-Jul-19 22:30N 40°28' W 073°51'5 9.6
2017-Jul-19 22:00N 40°24' W 073°47'0 1.0
2017-Jul-19 21:30N 40°24' W 073°46'2 4.7
2017-Jul-19 21:00N 40°21' W 073°46'2 3.2
2017-Jul-19 20:30N 40°20' W 073°46'2 3.6
2017-Jul-19 20:00N 40°18' W 073°46'4 7.3
2017-Jul-19 19:30N 40°14' W 073°45'4 7.3
2017-Jul-19 19:00N 40°11' W 073°45'4 7.5
2017-Jul-19 18:29N 40°07' W 073°45'4 7.8
2017-Jul-19 17:59N 40°03' W 073°44'4 7.8
2017-Jul-19 17:29N 39°59' W 073°43'4 7.9
2017-Jul-19 17:01N 39°55' W 073°43'4 7.9
2017-Jul-19 16:30N 39°52' W 073°42'4 7.9
2017-Jul-19 16:00N 39°48' W 073°42'4 7.9
2017-Jul-19 15:29N 39°43' W 073°42'4 7.9
2017-Jul-19 15:00N 39°40' W 073°44'4 7.9
2017-Jul-19 14:29N 39°36' W 073°46'4 7.7
2017-Jul-19 14:00N 39°33' W 073°48'4 7.8
2017-Jul-19 13:30N 39°29' W 073°49'4 7.6
2017-Jul-19 13:00N 39°26' W 073°51'4 7.5
2017-Jul-19 12:30N 39°22' W 073°53'3 7.0
2017-Jul-19 12:01N 39°19' W 073°54'3 6.9
2017-Jul-19 11:30N 39°15' W 073°56'3 6.9
2017-Jul-19 11:00N 39°12' W 073°57'3 7.0
2017-Jul-19 10:30N 39°09' W 073°59'4 7.2
2017-Jul-19 10:00N 39°06' W 074°01'4 7.2
2017-Jul-19 09:30N 39°02' W 074°03'4 7.2
2017-Jul-19 09:00N 38°59' W 074°05'4 7.3
2017-Jul-19 08:30N 38°56' W 074°07'4 7.8
2017-Jul-19 08:01N 38°53' W 074°10'4 7.8
2017-Jul-19 07:30N 38°49' W 074°12'4 7.8
2017-Jul-19 07:00N 38°46' W 074°15'4 7.7
2017-Jul-19 06:30N 38°42' W 074°17'4 7.7
2017-Jul-19 06:00N 38°39' W 074°19'5 7.5
2017-Jul-19 05:20N 38°34' W 074°22'2 7.4
2017-Jul-19 05:01N 38°32' W 074°24'4 7.2
2017-Jul-19 04:31N 38°29' W 074°26'4 7.3
2017-Jul-19 04:01N 38°26' W 074°28'4 7.3
2017-Jul-19 03:31N 38°23' W 074°30'4 7.3
2017-Jul-19 03:00N 38°19' W 074°32'4 7.1
2017-Jul-19 02:29N 38°16' W 074°35'3 7.1
2017-Jul-19 02:00N 38°13' W 074°37'4 7.1
2017-Jul-19 01:30N 38°10' W 074°39'4 7.1
2017-Jul-19 01:00N 38°07' W 074°41'4 7.2
2017-Jul-19 00:30N 38°04' W 074°44'4 7.4
2017-Jul-18 23:59N 38°01' W 074°46'4 7.5
2017-Jul-18 23:29N 37°58' W 074°49'80 9.7
2017-Jul-18 15:17N 36°49' W 075°41'310.1
2017-Jul-18 15:00N 36°49' W 075°44'1514.5
2017-Jul-18 14:00N 36°56' W 075°59'816.4
2017-Jul-18 13:30N 36°59' W 076°09'913.4
2017-Jul-18 12:49N 36°57' W 076°20'3 9.7
2017-Jul-18 12:29N 36°54' W 076°20'3 0.5
2017-Jul-18 07:36N 36°51' W 076°19'0 0.0
2017-Jul-18 07:30N 36°51' W 076°19'0 0.0
2017-Jul-18 06:57N 36°51' W 076°19'0 0.0
2017-Jul-18 06:30N 36°51' W 076°19'0 0.0
2017-Jul-18 06:00N 36°51' W 076°19'0 0.0
2017-Jul-18 05:30N 36°51' W 076°19'0 0.0
2017-Jul-18 05:00N 36°51' W 076°19'0 0.0
2017-Jul-18 04:30N 36°51' W 076°19'0 0.0
2017-Jul-18 04:00N 36°51' W 076°19'0 0.0
2017-Jul-18 03:30N 36°51' W 076°19'0 0.0
2017-Jul-18 03:00N 36°51' W 076°19'0 0.0
2017-Jul-18 02:30N 36°51' W 076°19'0 0.0
2017-Jul-18 02:00N 36°51' W 076°19'0 0.0
2017-Jul-18 01:30N 36°51' W 076°19'0 0.0
2017-Jul-18 00:57N 36°51' W 076°19'0 0.0
2017-Jul-18 00:30N 36°51' W 076°19'0 0.0
2017-Jul-18 00:00N 36°51' W 076°19'0 0.0
2017-Jul-17 23:30N 36°51' W 076°19'0 0.0
2017-Jul-17 22:57N 36°51' W 076°19'0 0.0
2017-Jul-17 22:30N 36°51' W 076°19'0 0.0
2017-Jul-17 22:00N 36°51' W 076°19'0 0.0
2017-Jul-17 21:30N 36°51' W 076°19'0 0.2
2017-Jul-17 21:00N 36°52' W 076°19'2 4.2
2017-Jul-17 20:31N 36°54' W 076°20'4 8.8
2017-Jul-17 20:00N 36°58' W 076°20'612.6
2017-Jul-17 19:30N 37°00' W 076°13'917.5
2017-Jul-17 19:00N 36°57' W 076°02'612.8
2017-Jul-17 18:30N 36°55' W 075°55'713.3
2017-Jul-17 18:00N 36°51' W 075°48'61919.0
2017-Jul-16 09:28N 27°08' W 079°54'1021.9
2017-Jul-16 09:01N 26°58' W 079°54'1121.6
2017-Jul-16 08:31N 26°47' W 079°54'1121.0
2017-Jul-16 08:01N 26°37' W 079°54'1120.9
2017-Jul-16 07:30N 26°26' W 079°55'1020.2
2017-Jul-16 07:00N 26°16' W 079°56'714.8
2017-Jul-16 06:30N 26°10' W 080°01'511.1
2017-Jul-16 06:00N 26°06' W 080°05'2 4.0
2017-Jul-16 05:31N 26°05' W 080°07'1 1.9
2017-Jul-16 04:58N 26°04' W 080°07'0 0.0
2017-Jul-16 04:28N 26°04' W 080°07'0 0.0
2017-Jul-16 03:58N 26°04' W 080°07'0 0.0
2017-Jul-16 03:28N 26°04' W 080°07'0 0.0
2017-Jul-16 02:58N 26°04' W 080°07'0 0.0
2017-Jul-16 02:28N 26°04' W 080°07'0 0.0
2017-Jul-16 01:58N 26°04' W 080°07'0 0.0
2017-Jul-16 01:28N 26°04' W 080°07'0 0.0
2017-Jul-16 00:58N 26°04' W 080°07'0 0.0
2017-Jul-16 00:28N 26°04' W 080°07'0 0.0
2017-Jul-15 23:58N 26°04' W 080°07'0 0.0
2017-Jul-15 23:28N 26°04' W 080°07'0 0.0
2017-Jul-15 22:58N 26°04' W 080°07'  
Track history (hours):
 
Tides and Currents Weather Stations Pressure Air Temp Water Temp Dewpoint Dewpoint Depression Visibility Wind Speed Wind Dir Waves Ship Positions

MSC Florentina

Last reported at 2017-Jul-25 22:54 UTC. Time now 2017-Jul-27 02:39 UTC.
Position N 31°28' W 079°46'.

Length 300 m; draft 10.8 m.

Type: Ship (hazmat cat A). MMSI: 352870000.

Date/timePositionNaut miles runAvg speedWind from/ knotsBaromVisibWave heightAir tempDewpointWater temp
2017-Jul-25 22:54N 31°28' W 079°46'1619.3
2017-Jul-25 22:05N 31°36' W 080°02'115.2
2017-Jul-25 22:00N 31°37' W 080°03'712.5
2017-Jul-25 21:29N 31°40' W 080°09'816.8
2017-Jul-25 21:00N 31°45' W 080°17'1019.4
2017-Jul-25 20:30N 31°50' W 080°27'918.0
2017-Jul-25 20:00N 31°54' W 080°36'815.6
2017-Jul-25 19:30N 31°58' W 080°44'815.2
2017-Jul-25 19:00N 32°02' W 080°52'612.9
2017-Jul-25 18:30N 32°05' W 080°59'4 8.4
2017-Jul-25 18:00N 32°05' W 081°04'3 5.8
2017-Jul-25 17:30N 32°06' W 081°07'2 2.4
2017-Jul-25 16:50N 32°07' W 081°08'0 0.0
2017-Jul-25 16:26N 32°07' W 081°08'0 0.0
2017-Jul-25 15:55N 32°07' W 081°08'0 0.0
2017-Jul-25 15:26N 32°07' W 081°08'0 0.0
2017-Jul-25 14:55N 32°07' W 081°08'0 0.0
2017-Jul-25 13:56N 32°07' W 081°08'0 0.0
2017-Jul-25 13:26N 32°07' W 081°08'0 0.0
2017-Jul-25 12:56N 32°07' W 081°08'0 0.0
2017-Jul-25 12:26N 32°07' W 081°08'0 0.0
2017-Jul-25 11:55N 32°07' W 081°08'0 0.0
2017-Jul-25 11:26N 32°07' W 081°08'0 0.0
2017-Jul-25 10:56N 32°07' W 081°08'0 0.0
2017-Jul-25 10:26N 32°07' W 081°08'0 0.0
2017-Jul-25 09:55N 32°07' W 081°08'0 0.0
2017-Jul-25 09:26N 32°07' W 081°08'0 0.0
2017-Jul-25 08:50N 32°07' W 081°08'0 0.0
2017-Jul-25 08:26N 32°07' W 081°08'0 0.0
2017-Jul-25 07:56N 32°07' W 081°08'0 0.0
2017-Jul-25 07:26N 32°07' W 081°08'0 0.0
2017-Jul-25 06:56N 32°07' W 081°08'0 0.0
2017-Jul-25 06:20N 32°07' W 081°08'0 0.0
2017-Jul-25 05:56N 32°07' W 081°08'0 0.0
2017-Jul-25 05:26N 32°07' W 081°08'0 0.0
2017-Jul-25 04:56N 32°07' W 081°08'0 0.0
2017-Jul-25 04:26N 32°07' W 081°08'0 0.0
2017-Jul-25 03:56N 32°07' W 081°08'0 0.0
2017-Jul-25 03:14N 32°07' W 081°08'0 0.0
2017-Jul-25 02:50N 32°07' W 081°08'0 0.0
2017-Jul-25 02:26N 32°07' W 081°08'0 0.0
2017-Jul-25 01:50N 32°07' W 081°08'0 0.0
2017-Jul-25 01:26N 32°07' W 081°08'0 0.0
2017-Jul-25 00:56N 32°07' W 081°08'0 0.0
2017-Jul-25 00:26N 32°07' W 081°08'0 0.0
2017-Jul-24 23:49N 32°07' W 081°08'0 0.0
2017-Jul-24 23:20N 32°07' W 081°08'0 0.0
2017-Jul-24 22:56N 32°07' W 081°08'0 0.3
2017-Jul-24 22:30N 32°08' W 081°08'1 1.1
2017-Jul-24 22:00N 32°07' W 081°08'3 6.2
2017-Jul-24 21:30N 32°05' W 081°05'3 6.9
2017-Jul-24 21:00N 32°06' W 081°01'5 9.2
2017-Jul-24 20:30N 32°03' W 080°56'510.7
2017-Jul-24 20:01N 32°02' W 080°50'714.2
2017-Jul-24 19:30N 31°58' W 080°44'713.5
2017-Jul-24 19:00N 31°56' W 080°36'917.0
2017-Jul-24 18:30N 31°57' W 080°26'37416.5
2017-Jul-23 19:48N 36°46' W 075°39'620.2
2017-Jul-23 19:30N 36°49' W 075°46'1019.4
2017-Jul-23 19:00N 36°54' W 075°55'714.2
2017-Jul-23 18:30N 36°60' W 076°01'1119.4
2017-Jul-23 17:56N 37°09' W 076°09'7817.5
2017-Jul-23 13:27N 38°27' W 076°22'1419.3
2017-Jul-23 12:43N 38°40' W 076°25'619.5
2017-Jul-23 12:25N 38°46' W 076°26'818.7
2017-Jul-23 12:01N 38°54' W 076°24'714.0
2017-Jul-23 11:30N 39°01' W 076°23'713.5
2017-Jul-23 11:00N 39°07' W 076°24'611.5
2017-Jul-23 10:30N 39°12' W 076°29'5 9.8
2017-Jul-23 09:59N 39°15' W 076°34'1 1.5
2017-Jul-23 09:29N 39°15' W 076°33'0 0.0
2017-Jul-23 08:53N 39°15' W 076°33'0 0.0
2017-Jul-23 08:29N 39°15' W 076°33'0 0.0
2017-Jul-23 06:53N 39°15' W 076°33'0 0.0
2017-Jul-23 06:29N 39°15' W 076°33'0 0.0
2017-Jul-23 05:59N 39°15' W 076°33'0 0.0
2017-Jul-23 05:29N 39°15' W 076°33'0 0.0
2017-Jul-23 04:59N 39°15' W 076°33'0 0.0
2017-Jul-23 04:29N 39°15' W 076°33'0 0.0
2017-Jul-23 03:59N 39°15' W 076°33'0 0.0
2017-Jul-23 03:29N 39°15' W 076°33'0 0.0
2017-Jul-23 02:59N 39°15' W 076°33'0 0.0
2017-Jul-23 02:29N 39°15' W 076°33'0 0.0
2017-Jul-23 01:59N 39°15' W 076°33'0 0.0
2017-Jul-23 01:29N 39°15' W 076°33'0 0.0
2017-Jul-23 00:59N 39°15' W 076°33'0 0.0
2017-Jul-23 00:26N 39°15' W 076°33'0 0.0
2017-Jul-22 23:59N 39°15' W 076°33'0 0.0
2017-Jul-22 23:29N 39°15' W 076°33'0 0.0
2017-Jul-22 22:59N 39°15' W 076°33'0 0.0
2017-Jul-22 22:29N 39°15' W 076°33'0 0.0
2017-Jul-22 21:59N 39°15' W 076°33'0 0.0
2017-Jul-22 21:29N 39°15' W 076°33'0 0.0
2017-Jul-22 21:00N 39°15' W 076°33'0 0.0
2017-Jul-22 20:29N 39°15' W 076°33'0 0.0
2017-Jul-22 19:59N 39°15' W 076°33'0 0.0
2017-Jul-22 19:29N 39°15' W 076°33'0 0.0
2017-Jul-22 18:56N 39°15' W 076°33'0 0.0
2017-Jul-22 18:29N 39°15' W 076°33'0 0.0
2017-Jul-22 17:59N 39°15' W 076°33'0 0.0
2017-Jul-22 17:29N 39°15' W 076°33'0 0.0
2017-Jul-22 16:59N 39°15' W 076°33'0 0.0
2017-Jul-22 16:29N 39°15' W 076°33'0 0.0
2017-Jul-22 15:59N 39°15' W 076°33'0 0.0
2017-Jul-22 15:26N 39°15' W 076°33'1 2.5
2017-Jul-22 15:01N 39°14' W 076°33'10 9.5
2017-Jul-22 14:00N 39°08' W 076°24'714.7
2017-Jul-22 13:30N 39°00' W 076°23'917.6
2017-Jul-22 13:00N 38°52' W 076°24'918.6
2017-Jul-22 12:31N 38°42' W 076°26'918.2
2017-Jul-22 12:00N 38°33' W 076°26'918.4
2017-Jul-22 11:30N 38°25' W 076°21'1418.7
2017-Jul-22 10:44N 38°12' W 076°14'519.0
2017-Jul-22 10:28N 38°07' W 076°13'918.4
2017-Jul-22 09:59N 37°58' W 076°11'1018.2
2017-Jul-22 09:28N 37°48' W 076°10'3816.4
2017-Jul-22 07:09N 37°10' W 076°09'216.5
2017-Jul-22 07:00N 37°08' W 076°09'816.4
2017-Jul-22 06:30N 37°01' W 076°03'714.2
2017-Jul-22 06:00N 36°56' W 075°57'612.6
2017-Jul-22 05:30N 36°52' W 075°51'12614.2
2017-Jul-21 20:39N 38°37' W 074°22'314.2
2017-Jul-21 20:28N 38°39' W 074°21'714.3
2017-Jul-21 20:00N 38°45' W 074°17'914.3
2017-Jul-21 19:22N 38°53' W 074°11'514.2
2017-Jul-21 19:00N 38°58' W 074°08'914.5
2017-Jul-21 18:25N 39°05' W 074°03'614.6
2017-Jul-21 18:00N 39°11' W 074°00'714.7
2017-Jul-21 17:30N 39°18' W 073°59'814.7
2017-Jul-21 16:59N 39°26' W 073°57'814.9
2017-Jul-21 16:27N 39°33' W 073°55'714.9
2017-Jul-21 16:00N 39°40' W 073°54'814.9
2017-Jul-21 15:30N 39°47' W 073°52'714.8
2017-Jul-21 15:00N 39°55' W 073°52'815.1
2017-Jul-21 14:30N 40°02' W 073°51'1015.0
2017-Jul-21 13:49N 40°12' W 073°50'515.1
2017-Jul-21 13:28N 40°18' W 073°49'714.3
2017-Jul-21 12:59N 40°25' W 073°49'4 8.9
2017-Jul-21 12:30N 40°28' W 073°52'714.7
2017-Jul-21 12:00N 40°32' W 074°01'612.9
2017-Jul-21 11:30N 40°38' W 074°03'3 6.2
2017-Jul-21 11:00N 40°39' W 074°07'2 3.2
2017-Jul-21 10:31N 40°40' W 074°08'1 2.3
2017-Jul-21 09:58N 40°41' W 074°09'0 0.2
2017-Jul-21 09:28N 40°41' W 074°09'0 0.0
2017-Jul-21 08:58N 40°41' W 074°09'0 0.0
2017-Jul-21 08:28N 40°41' W 074°09'0 0.0
2017-Jul-21 07:58N 40°41' W 074°09'0 0.0
2017-Jul-21 07:28N 40°41' W 074°09'0 0.0
2017-Jul-21 06:58N 40°41' W 074°09'0 0.0
2017-Jul-21 06:28N 40°41' W 074°09'0 0.0
2017-Jul-21 05:58N 40°41' W 074°09'0 0.0
2017-Jul-21 05:28N 40°41' W 074°09'0 0.0
2017-Jul-21 04:58N 40°41' W 074°09'0 0.0
2017-Jul-21 04:28N 40°41' W 074°09'0 0.0
2017-Jul-21 03:58N 40°41' W 074°09'0 0.0
2017-Jul-21 03:28N 40°41' W 074°09'0 0.0
2017-Jul-21 02:58N 40°41' W 074°09'0 0.0
2017-Jul-21 02:28N 40°41' W 074°09'0 0.0
2017-Jul-21 01:55N 40°41' W 074°09'0 0.0
2017-Jul-21 01:28N 40°41' W 074°09'0 0.0
2017-Jul-21 00:58N 40°41' W 074°09'0 0.0
2017-Jul-21 00:28N 40°41' W 074°09'0 0.0
2017-Jul-20 23:58N 40°41' W 074°09'0 0.0
2017-Jul-20 23:28N 40°41' W 074°09'0 0.0
2017-Jul-20 22:53N 40°41' W 074°09'0 0.0
2017-Jul-20 22:26N 40°41' W 074°09'0 0.0
2017-Jul-20 21:57N 40°41' W 074°09'0 0.0
2017-Jul-20 21:27N 40°41' W 074°09'0 0.0
2017-Jul-20 20:26N 40°41' W 074°09'0 0.0
2017-Jul-20 19:59N 40°41' W 074°09'0 0.0
2017-Jul-20 19:29N 40°41' W 074°09'0 0.0
2017-Jul-20 18:59N 40°41' W 074°09'0 0.0
2017-Jul-20 18:29N 40°41' W 074°09'0 0.0
2017-Jul-20 17:59N 40°41' W 074°09'0 0.0
2017-Jul-20 17:26N 40°41' W 074°09'0 0.0
2017-Jul-20 16:50N 40°41' W 074°09'0 0.0
2017-Jul-20 16:29N 40°41' W 074°09'0 0.0
2017-Jul-20 15:59N 40°41' W 074°09'0 0.0
2017-Jul-20 15:29N 40°41' W 074°09'0 0.0
2017-Jul-20 14:59N 40°41' W 074°09'0 0.0
2017-Jul-20 13:59N 40°41' W 074°09'0 0.0
2017-Jul-20 13:29N 40°41' W 074°09'0 0.0
2017-Jul-20 12:59N 40°41' W 074°09'0 0.0
2017-Jul-20 12:29N 40°41' W 074°09'0 0.0
2017-Jul-20 11:59N 40°41' W 074°09'0 0.0
2017-Jul-20 11:29N 40°41' W 074°09'0 0.0
2017-Jul-20 10:59N 40°41' W 074°09'0 0.0
2017-Jul-20 10:20N 40°41' W 074°09'0 0.0
2017-Jul-20 09:59N 40°41' W 074°09'0 0.0
2017-Jul-20 09:29N 40°41' W 074°09'0 0.0
2017-Jul-20 08:56N 40°41' W 074°09'0 0.0
2017-Jul-20 08:29N 40°41' W 074°09'0 0.0
2017-Jul-20 07:59N 40°41' W 074°09'0 0.0
2017-Jul-20 07:29N 40°41' W 074°09'0 0.0
2017-Jul-20 06:59N 40°41' W 074°09'0 0.0
2017-Jul-20 06:29N 40°41' W 074°09'0 0.0
2017-Jul-20 05:59N 40°41' W 074°09'0 0.0
2017-Jul-20 05:29N 40°41' W 074°09'0 0.0
2017-Jul-20 04:59N 40°41' W 074°09'0 0.0
2017-Jul-20 04:29N 40°41' W 074°09'0 0.0
2017-Jul-20 03:59N 40°41' W 074°09'0 0.0
2017-Jul-20 03:29N 40°41' W 074°09'0 0.0
2017-Jul-20 02:59N 40°41' W 074°09'0 0.0
2017-Jul-20 02:29N 40°41' W 074°09'0 0.0
2017-Jul-20 01:53N 40°41' W 074°09'1 2.8
2017-Jul-20 01:30N 40°40' W 074°08'1 1.3
2017-Jul-20 01:00N 40°40' W 074°09'1 2.1
2017-Jul-20 00:30N 40°39' W 074°09'2 4.7
2017-Jul-20 00:00N 40°39' W 074°06'3 5.7
2017-Jul-19 23:30N 40°37' W 074°03'612.4
2017-Jul-19 23:00N 40°31' W 073°60'815.4
2017-Jul-19 22:30N 40°28' W 073°51'5 9.6
2017-Jul-19 22:00N 40°24' W 073°47'0 1.0
2017-Jul-19 21:30N 40°24' W 073°46'2 4.7
2017-Jul-19 21:00N 40°21' W 073°46'2 3.2
2017-Jul-19 20:30N 40°20' W 073°46'2 3.6
2017-Jul-19 20:00N 40°18' W 073°46'4 7.3
2017-Jul-19 19:30N 40°14' W 073°45'4 7.3
2017-Jul-19 19:00N 40°11' W 073°45'4 7.5
2017-Jul-19 18:29N 40°07' W 073°45'4 7.8
2017-Jul-19 17:59N 40°03' W 073°44'4 7.8
2017-Jul-19 17:29N 39°59' W 073°43'4 7.9
2017-Jul-19 17:01N 39°55' W 073°43'4 7.9
2017-Jul-19 16:30N 39°52' W 073°42'4 7.9
2017-Jul-19 16:00N 39°48' W 073°42'4 7.9
2017-Jul-19 15:29N 39°43' W 073°42'4 7.9
2017-Jul-19 15:00N 39°40' W 073°44'4 7.9
2017-Jul-19 14:29N 39°36' W 073°46'4 7.7
2017-Jul-19 14:00N 39°33' W 073°48'4 7.8
2017-Jul-19 13:30N 39°29' W 073°49'4 7.6
2017-Jul-19 13:00N 39°26' W 073°51'4 7.5
2017-Jul-19 12:30N 39°22' W 073°53'3 7.0
2017-Jul-19 12:01N 39°19' W 073°54'3 6.9
2017-Jul-19 11:30N 39°15' W 073°56'3 6.9
2017-Jul-19 11:00N 39°12' W 073°57'3 7.0
2017-Jul-19 10:30N 39°09' W 073°59'4 7.2
2017-Jul-19 10:00N 39°06' W 074°01'4 7.2
2017-Jul-19 09:30N 39°02' W 074°03'4 7.2
2017-Jul-19 09:00N 38°59' W 074°05'4 7.3
2017-Jul-19 08:30N 38°56' W 074°07'4 7.8
2017-Jul-19 08:01N 38°53' W 074°10'4 7.8
2017-Jul-19 07:30N 38°49' W 074°12'4 7.8
2017-Jul-19 07:00N 38°46' W 074°15'4 7.7
2017-Jul-19 06:30N 38°42' W 074°17'4 7.7
2017-Jul-19 06:00N 38°39' W 074°19'5 7.5
2017-Jul-19 05:20N 38°34' W 074°22'2 7.4
2017-Jul-19 05:01N 38°32' W 074°24'4 7.2
2017-Jul-19 04:31N 38°29' W 074°26'4 7.3
2017-Jul-19 04:01N 38°26' W 074°28'4 7.3
2017-Jul-19 03:31N 38°23' W 074°30'4 7.3
2017-Jul-19 03:00N 38°19' W 074°32'4 7.1
2017-Jul-19 02:29N 38°16' W 074°35'3 7.1
2017-Jul-19 02:00N 38°13' W 074°37'4 7.1
2017-Jul-19 01:30N 38°10' W 074°39'4 7.1
2017-Jul-19 01:00N 38°07' W 074°41'4 7.2
2017-Jul-19 00:30N 38°04' W 074°44'4 7.4
2017-Jul-18 23:59N 38°01' W 074°46'4 7.5
2017-Jul-18 23:29N 37°58' W 074°49'80 9.7
2017-Jul-18 15:17N 36°49' W 075°41'310.1
2017-Jul-18 15:00N 36°49' W 075°44'1514.5
2017-Jul-18 14:00N 36°56' W 075°59'816.4
2017-Jul-18 13:30N 36°59' W 076°09'913.4
2017-Jul-18 12:49N 36°57' W 076°20'3 9.7
2017-Jul-18 12:29N 36°54' W 076°20'3 0.5
2017-Jul-18 07:36N 36°51' W 076°19'0 0.0
2017-Jul-18 07:30N 36°51' W 076°19'0 0.0
2017-Jul-18 06:57N 36°51' W 076°19'0 0.0
2017-Jul-18 06:30N 36°51' W 076°19'0 0.0
2017-Jul-18 06:00N 36°51' W 076°19'0 0.0
2017-Jul-18 05:30N 36°51' W 076°19'0 0.0
2017-Jul-18 05:00N 36°51' W 076°19'0 0.0
2017-Jul-18 04:30N 36°51' W 076°19'0 0.0
2017-Jul-18 04:00N 36°51' W 076°19'0 0.0
2017-Jul-18 03:30N 36°51' W 076°19'0 0.0
2017-Jul-18 03:00N 36°51' W 076°19'0 0.0
2017-Jul-18 02:30N 36°51' W 076°19'0 0.0
2017-Jul-18 02:00N 36°51' W 076°19'0 0.0
2017-Jul-18 01:30N 36°51' W 076°19'0 0.0
2017-Jul-18 00:57N 36°51' W 076°19'0 0.0
2017-Jul-18 00:30N 36°51' W 076°19'0 0.0
2017-Jul-18 00:00N 36°51' W 076°19'0 0.0
2017-Jul-17 23:30N 36°51' W 076°19'0 0.0
2017-Jul-17 22:57N 36°51' W 076°19'0 0.0
2017-Jul-17 22:30N 36°51' W 076°19'0 0.0
2017-Jul-17 22:00N 36°51' W 076°19'0 0.0
2017-Jul-17 21:30N 36°51' W 076°19'0 0.2
2017-Jul-17 21:00N 36°52' W 076°19'2 4.2
2017-Jul-17 20:31N 36°54' W 076°20'4 8.8
2017-Jul-17 20:00N 36°58' W 076°20'612.6
2017-Jul-17 19:30N 37°00' W 076°13'917.5
2017-Jul-17 19:00N 36°57' W 076°02'612.8
2017-Jul-17 18:30N 36°55' W 075°55'713.3
2017-Jul-17 18:00N 36°51' W 075°48'61919.0
2017-Jul-16 09:28N 27°08' W 079°54'1021.9
2017-Jul-16 09:01N 26°58' W 079°54'1121.6
2017-Jul-16 08:31N 26°47' W 079°54'1121.0
2017-Jul-16 08:01N 26°37' W 079°54'1120.9
2017-Jul-16 07:30N 26°26' W 079°55'1020.2
2017-Jul-16 07:00N 26°16' W 079°56'714.8
2017-Jul-16 06:30N 26°10' W 080°01'511.1
2017-Jul-16 06:00N 26°06' W 080°05'2 4.0
2017-Jul-16 05:31N 26°05' W 080°07'1 1.9
2017-Jul-16 04:58N 26°04' W 080°07'0 0.0
2017-Jul-16 04:28N 26°04' W 080°07'0 0.0
2017-Jul-16 03:58N 26°04' W 080°07'0 0.0
2017-Jul-16 03:28N 26°04' W 080°07'0 0.0
2017-Jul-16 02:58N 26°04' W 080°07'0 0.0
2017-Jul-16 02:28N 26°04' W 080°07'0 0.0
2017-Jul-16 01:58N 26°04' W 080°07'0 0.0
2017-Jul-16 01:28N 26°04' W 080°07'0 0.0
2017-Jul-16 00:58N 26°04' W 080°07'0 0.0
2017-Jul-16 00:28N 26°04' W 080°07'0 0.0
2017-Jul-15 23:58N 26°04' W 080°07'0 0.0
2017-Jul-15 23:28N 26°04' W 080°07'0 0.0
2017-Jul-15 22:58N 26°04' W 080°07'  

Dump ship's entire track history